sensor_id;sensor_type;location;lat;lon;timestamp;temperature;humidity
24017;DHT22;12222;50.090;19.702;2022-08-20T00:00:10;20.20;99.90
24017;DHT22;12222;50.090;19.702;2022-08-20T00:05:39;20.00;99.90
24017;DHT22;12222;50.090;19.702;2022-08-20T00:11:04;20.30;99.90
24017;DHT22;12222;50.090;19.702;2022-08-20T00:16:28;20.30;99.90
24017;DHT22;12222;50.090;19.702;2022-08-20T00:21:53;20.40;99.90
24017;DHT22;12222;50.090;19.702;2022-08-20T00:27:19;20.50;99.90
24017;DHT22;12222;50.090;19.702;2022-08-20T00:32:47;20.50;99.90
24017;DHT22;12222;50.090;19.702;2022-08-20T00:38:10;20.60;99.90
24017;DHT22;12222;50.090;19.702;2022-08-20T00:49:30;20.40;99.90
24017;DHT22;12222;50.090;19.702;2022-08-20T00:54:57;20.60;99.90
24017;DHT22;12222;50.090;19.702;2022-08-20T01:00:23;20.70;99.90
24017;DHT22;12222;50.090;19.702;2022-08-20T01:05:49;20.60;99.90
24017;DHT22;12222;50.090;19.702;2022-08-20T01:11:11;20.50;99.90
24017;DHT22;12222;50.090;19.702;2022-08-20T01:16:37;20.50;99.90
24017;DHT22;12222;50.090;19.702;2022-08-20T01:22:03;20.40;99.90
24017;DHT22;12222;50.090;19.702;2022-08-20T01:27:46;20.50;99.90
24017;DHT22;12222;50.090;19.702;2022-08-20T01:33:18;20.60;99.90
24017;DHT22;12222;50.090;19.702;2022-08-20T01:38:41;20.50;99.90
24017;DHT22;12222;50.090;19.702;2022-08-20T01:44:15;20.50;99.90
24017;DHT22;12222;50.090;19.702;2022-08-20T01:49:44;20.30;99.90
24017;DHT22;12222;50.090;19.702;2022-08-20T01:55:08;20.10;99.90
24017;DHT22;12222;50.090;19.702;2022-08-20T02:00:30;20.20;99.90
24017;DHT22;12222;50.090;19.702;2022-08-20T02:05:53;20.00;99.90
24017;DHT22;12222;50.090;19.702;2022-08-20T02:11:15;20.00;99.90
24017;DHT22;12222;50.090;19.702;2022-08-20T02:16:40;20.00;99.90
24017;DHT22;12222;50.090;19.702;2022-08-20T02:22:33;19.80;99.90
24017;DHT22;12222;50.090;19.702;2022-08-20T02:27:56;19.80;99.90
24017;DHT22;12222;50.090;19.702;2022-08-20T02:33:20;19.80;99.90
24017;DHT22;12222;50.090;19.702;2022-08-20T02:38:45;19.70;99.90
24017;DHT22;12222;50.090;19.702;2022-08-20T02:44:08;19.40;99.90
24017;DHT22;12222;50.090;19.702;2022-08-20T02:49:30;19.30;99.90
24017;DHT22;12222;50.090;19.702;2022-08-20T02:54:52;19.00;99.90
24017;DHT22;12222;50.090;19.702;2022-08-20T03:00:19;19.00;99.90
24017;DHT22;12222;50.090;19.702;2022-08-20T03:05:43;19.10;99.90
24017;DHT22;12222;50.090;19.702;2022-08-20T03:11:05;19.10;99.90
24017;DHT22;12222;50.090;19.702;2022-08-20T03:16:27;19.40;99.90
24017;DHT22;12222;50.090;19.702;2022-08-20T03:21:50;19.50;99.90
24017;DHT22;12222;50.090;19.702;2022-08-20T03:27:12;19.40;99.90
24017;DHT22;12222;50.090;19.702;2022-08-20T03:32:35;19.20;99.90
24017;DHT22;12222;50.090;19.702;2022-08-20T03:37:57;19.10;99.90
24017;DHT22;12222;50.090;19.702;2022-08-20T03:43:19;19.30;99.90
24017;DHT22;12222;50.090;19.702;2022-08-20T03:48:41;19.20;99.90
24017;DHT22;12222;50.090;19.702;2022-08-20T03:54:04;19.40;99.90
24017;DHT22;12222;50.090;19.702;2022-08-20T03:59:26;19.30;99.90
24017;DHT22;12222;50.090;19.702;2022-08-20T04:04:48;19.40;99.90
24017;DHT22;12222;50.090;19.702;2022-08-20T04:10:11;19.60;99.90
24017;DHT22;12222;50.090;19.702;2022-08-20T04:15:35;19.70;99.90
24017;DHT22;12222;50.090;19.702;2022-08-20T04:20:58;19.50;99.90
24017;DHT22;12222;50.090;19.702;2022-08-20T04:26:20;19.30;99.90
24017;DHT22;12222;50.090;19.702;2022-08-20T04:31:43;19.30;99.90
24017;DHT22;12222;50.090;19.702;2022-08-20T04:37:05;19.20;99.90
24017;DHT22;12222;50.090;19.702;2022-08-20T04:42:38;19.20;99.90
24017;DHT22;12222;50.090;19.702;2022-08-20T04:48:02;19.10;99.90
24017;DHT22;12222;50.090;19.702;2022-08-20T04:53:27;19.20;99.90
24017;DHT22;12222;50.090;19.702;2022-08-20T04:58:49;19.40;99.90
24017;DHT22;12222;50.090;19.702;2022-08-20T05:04:13;19.70;99.90
24017;DHT22;12222;50.090;19.702;2022-08-20T05:09:35;20.20;99.90
24017;DHT22;12222;50.090;19.702;2022-08-20T05:15:05;20.90;99.90
24017;DHT22;12222;50.090;19.702;2022-08-20T05:20:29;21.90;99.90
24017;DHT22;12222;50.090;19.702;2022-08-20T05:25:52;22.50;99.90
24017;DHT22;12222;50.090;19.702;2022-08-20T05:31:14;22.10;99.90
24017;DHT22;12222;50.090;19.702;2022-08-20T05:36:44;22.10;99.90
24017;DHT22;12222;50.090;19.702;2022-08-20T05:42:10;22.20;99.90
24017;DHT22;12222;50.090;19.702;2022-08-20T05:47:32;22.40;99.90
24017;DHT22;12222;50.090;19.702;2022-08-20T05:53:04;22.50;99.90
24017;DHT22;12222;50.090;19.702;2022-08-20T05:58:26;22.70;99.90
24017;DHT22;12222;50.090;19.702;2022-08-20T06:03:51;22.90;99.90
24017;DHT22;12222;50.090;19.702;2022-08-20T06:09:32;22.70;99.90
24017;DHT22;12222;50.090;19.702;2022-08-20T06:14:56;22.50;99.90
24017;DHT22;12222;50.090;19.702;2022-08-20T06:20:18;22.60;99.90
24017;DHT22;12222;50.090;19.702;2022-08-20T06:25:40;23.20;99.90
24017;DHT22;12222;50.090;19.702;2022-08-20T06:31:02;23.40;99.90
24017;DHT22;12222;50.090;19.702;2022-08-20T06:36:25;23.70;99.90
24017;DHT22;12222;50.090;19.702;2022-08-20T06:41:48;23.60;99.90
24017;DHT22;12222;50.090;19.702;2022-08-20T06:47:15;23.70;99.90
24017;DHT22;12222;50.090;19.702;2022-08-20T06:52:41;23.50;99.90
24017;DHT22;12222;50.090;19.702;2022-08-20T06:58:24;23.10;99.90
24017;DHT22;12222;50.090;19.702;2022-08-20T07:03:59;23.00;99.90
24017;DHT22;12222;50.090;19.702;2022-08-20T07:09:24;23.00;99.90
24017;DHT22;12222;50.090;19.702;2022-08-20T07:14:48;23.10;99.90
24017;DHT22;12222;50.090;19.702;2022-08-20T07:20:13;23.10;99.90
24017;DHT22;12222;50.090;19.702;2022-08-20T07:25:39;23.50;99.90
24017;DHT22;12222;50.090;19.702;2022-08-20T07:31:03;23.70;99.90
24017;DHT22;12222;50.090;19.702;2022-08-20T07:36:45;24.00;99.90
24017;DHT22;12222;50.090;19.702;2022-08-20T07:42:10;23.90;99.90
24017;DHT22;12222;50.090;19.702;2022-08-20T07:47:34;24.10;99.90
24017;DHT22;12222;50.090;19.702;2022-08-20T07:52:57;24.10;99.90
24017;DHT22;12222;50.090;19.702;2022-08-20T07:58:22;24.20;99.90
24017;DHT22;12222;50.090;19.702;2022-08-20T08:03:54;24.50;99.90
24017;DHT22;12222;50.090;19.702;2022-08-20T08:09:19;24.50;99.90
24017;DHT22;12222;50.090;19.702;2022-08-20T08:14:44;24.70;99.90
24017;DHT22;12222;50.090;19.702;2022-08-20T08:20:08;25.00;99.90
24017;DHT22;12222;50.090;19.702;2022-08-20T08:25:33;25.10;99.90
24017;DHT22;12222;50.090;19.702;2022-08-20T08:30:57;25.30;99.90
24017;DHT22;12222;50.090;19.702;2022-08-20T08:36:23;26.00;99.90
24017;DHT22;12222;50.090;19.702;2022-08-20T08:41:50;26.30;99.90
24017;DHT22;12222;50.090;19.702;2022-08-20T08:47:27;26.90;99.90
24017;DHT22;12222;50.090;19.702;2022-08-20T08:52:54;27.80;99.90
24017;DHT22;12222;50.090;19.702;2022-08-20T08:58:22;27.40;99.90
24017;DHT22;12222;50.090;19.702;2022-08-20T09:03:48;27.80;99.90
24017;DHT22;12222;50.090;19.702;2022-08-20T09:09:20;27.90;99.90
24017;DHT22;12222;50.090;19.702;2022-08-20T09:14:45;27.90;99.90
24017;DHT22;12222;50.090;19.702;2022-08-20T09:20:12;27.80;99.90
24017;DHT22;12222;50.090;19.702;2022-08-20T09:25:36;27.30;99.90
24017;DHT22;12222;50.090;19.702;2022-08-20T09:31:03;28.10;99.90
24017;DHT22;12222;50.090;19.702;2022-08-20T09:36:28;29.40;99.90
24017;DHT22;12222;50.090;19.702;2022-08-20T09:41:54;29.10;99.90
24017;DHT22;12222;50.090;19.702;2022-08-20T09:47:17;28.80;99.90
24017;DHT22;12222;50.090;19.702;2022-08-20T09:52:49;28.90;99.90
24017;DHT22;12222;50.090;19.702;2022-08-20T10:03:44;29.30;99.90
24017;DHT22;12222;50.090;19.702;2022-08-20T10:09:09;29.40;99.90
24017;DHT22;12222;50.090;19.702;2022-08-20T10:14:32;30.20;99.90
24017;DHT22;12222;50.090;19.702;2022-08-20T10:19:55;30.50;98.50
24017;DHT22;12222;50.090;19.702;2022-08-20T10:25:18;30.80;96.00
24017;DHT22;12222;50.090;19.702;2022-08-20T10:30:41;30.10;93.60
24017;DHT22;12222;50.090;19.702;2022-08-20T10:36:10;30.50;93.80
24017;DHT22;12222;50.090;19.702;2022-08-20T10:41:33;30.00;93.60
24017;DHT22;12222;50.090;19.702;2022-08-20T10:52:35;29.10;95.40
24017;DHT22;12222;50.090;19.702;2022-08-20T10:57:58;29.40;96.70
24017;DHT22;12222;50.090;19.702;2022-08-20T11:03:21;29.30;95.40
24017;DHT22;12222;50.090;19.702;2022-08-20T11:08:44;29.00;96.50
24017;DHT22;12222;50.090;19.702;2022-08-20T11:14:09;29.40;98.00
24017;DHT22;12222;50.090;19.702;2022-08-20T11:19:32;28.90;95.90
24017;DHT22;12222;50.090;19.702;2022-08-20T11:24:59;29.10;93.60
24017;DHT22;12222;50.090;19.702;2022-08-20T11:30:28;28.70;94.80
24017;DHT22;12222;50.090;19.702;2022-08-20T11:35:51;28.70;96.60
24017;DHT22;12222;50.090;19.702;2022-08-20T11:41:15;29.20;96.50
24017;DHT22;12222;50.090;19.702;2022-08-20T11:46:38;29.60;95.10
24017;DHT22;12222;50.090;19.702;2022-08-20T11:52:01;28.90;94.60
24017;DHT22;12222;50.090;19.702;2022-08-20T11:57:27;28.80;95.70
24017;DHT22;12222;50.090;19.702;2022-08-20T12:02:50;28.90;95.00
24017;DHT22;12222;50.090;19.702;2022-08-20T12:08:15;28.80;95.40
24017;DHT22;12222;50.090;19.702;2022-08-20T12:13:49;29.10;95.80
24017;DHT22;12222;50.090;19.702;2022-08-20T12:19:11;29.00;96.10
24017;DHT22;12222;50.090;19.702;2022-08-20T12:24:35;28.40;95.20
24017;DHT22;12222;50.090;19.702;2022-08-20T12:30:01;28.20;95.10
24017;DHT22;12222;50.090;19.702;2022-08-20T12:35:25;28.40;98.10
24017;DHT22;12222;50.090;19.702;2022-08-20T12:40:47;28.00;98.10
24017;DHT22;12222;50.090;19.702;2022-08-20T12:46:11;28.10;99.90
24017;DHT22;12222;50.090;19.702;2022-08-20T12:51:34;27.80;99.90
24017;DHT22;12222;50.090;19.702;2022-08-20T12:56:57;26.80;99.90
24017;DHT22;12222;50.090;19.702;2022-08-20T13:02:19;26.10;99.90
24017;DHT22;12222;50.090;19.702;2022-08-20T13:07:43;25.80;99.90
24017;DHT22;12222;50.090;19.702;2022-08-20T13:13:06;25.20;99.90
24017;DHT22;12222;50.090;19.702;2022-08-20T13:18:28;24.70;99.90
24017;DHT22;12222;50.090;19.702;2022-08-20T13:23:51;24.40;99.90
24017;DHT22;12222;50.090;19.702;2022-08-20T13:29:14;23.90;99.90
24017;DHT22;12222;50.090;19.702;2022-08-20T13:34:37;23.50;99.90
24017;DHT22;12222;50.090;19.702;2022-08-20T13:40:01;23.00;99.90
24017;DHT22;12222;50.090;19.702;2022-08-20T13:45:23;22.60;99.90
24017;DHT22;12222;50.090;19.702;2022-08-20T13:50:47;22.10;99.90
24017;DHT22;12222;50.090;19.702;2022-08-20T13:56:09;21.70;99.90
24017;DHT22;12222;50.090;19.702;2022-08-20T14:01:35;21.30;99.90
24017;DHT22;12222;50.090;19.702;2022-08-20T14:07:20;21.10;99.90
24017;DHT22;12222;50.090;19.702;2022-08-20T14:12:43;20.90;99.90
24017;DHT22;12222;50.090;19.702;2022-08-20T14:18:06;20.90;99.90
24017;DHT22;12222;50.090;19.702;2022-08-20T14:23:29;21.00;99.90
24017;DHT22;12222;50.090;19.702;2022-08-20T14:28:57;21.00;99.90
24017;DHT22;12222;50.090;19.702;2022-08-20T14:34:20;21.00;99.90
24017;DHT22;12222;50.090;19.702;2022-08-20T14:39:44;20.90;99.90
24017;DHT22;12222;50.090;19.702;2022-08-20T14:45:08;20.70;99.90
24017;DHT22;12222;50.090;19.702;2022-08-20T14:50:33;20.60;99.90
24017;DHT22;12222;50.090;19.702;2022-08-20T14:55:56;20.80;99.90
24017;DHT22;12222;50.090;19.702;2022-08-20T15:01:19;20.70;99.90
24017;DHT22;12222;50.090;19.702;2022-08-20T15:06:43;20.50;99.90
24017;DHT22;12222;50.090;19.702;2022-08-20T15:12:06;20.70;99.90
24017;DHT22;12222;50.090;19.702;2022-08-20T15:17:29;20.80;99.90
24017;DHT22;12222;50.090;19.702;2022-08-20T15:22:52;20.50;99.90
24017;DHT22;12222;50.090;19.702;2022-08-20T15:28:15;20.50;99.90
24017;DHT22;12222;50.090;19.702;2022-08-20T15:33:38;20.60;99.90
24017;DHT22;12222;50.090;19.702;2022-08-20T15:39:01;20.60;99.90
24017;DHT22;12222;50.090;19.702;2022-08-20T15:44:24;20.70;99.90
24017;DHT22;12222;50.090;19.702;2022-08-20T15:49:48;20.60;99.90
24017;DHT22;12222;50.090;19.702;2022-08-20T15:55:14;20.60;99.90
24017;DHT22;12222;50.090;19.702;2022-08-20T16:00:47;20.20;99.90
24017;DHT22;12222;50.090;19.702;2022-08-20T16:06:16;20.20;99.90
24017;DHT22;12222;50.090;19.702;2022-08-20T16:17:12;20.10;99.90
24017;DHT22;12222;50.090;19.702;2022-08-20T16:22:42;20.20;99.90
24017;DHT22;12222;50.090;19.702;2022-08-20T16:28:22;20.10;99.90
24017;DHT22;12222;50.090;19.702;2022-08-20T16:34:49;20.10;99.90
24017;DHT22;12222;50.090;19.702;2022-08-20T16:40:13;20.20;99.90
24017;DHT22;12222;50.090;19.702;2022-08-20T16:45:57;20.20;99.90
24017;DHT22;12222;50.090;19.702;2022-08-20T16:51:36;20.00;99.90
24017;DHT22;12222;50.090;19.702;2022-08-20T16:57:02;20.10;99.90
24017;DHT22;12222;50.090;19.702;2022-08-20T17:02:25;19.80;99.90
24017;DHT22;12222;50.090;19.702;2022-08-20T17:07:58;19.50;99.90
24017;DHT22;12222;50.090;19.702;2022-08-20T17:13:28;19.40;99.90
24017;DHT22;12222;50.090;19.702;2022-08-20T17:18:52;19.30;99.90
24017;DHT22;12222;50.090;19.702;2022-08-20T17:29:55;19.30;99.90
24017;DHT22;12222;50.090;19.702;2022-08-20T17:35:41;19.30;99.90
24017;DHT22;12222;50.090;19.702;2022-08-20T17:41:32;19.20;99.90
24017;DHT22;12222;50.090;19.702;2022-08-20T17:46:56;19.20;99.90
24017;DHT22;12222;50.090;19.702;2022-08-20T17:52:32;19.20;99.90
24017;DHT22;12222;50.090;19.702;2022-08-20T17:57:58;19.20;99.90
24017;DHT22;12222;50.090;19.702;2022-08-20T18:03:24;18.90;99.90
24017;DHT22;12222;50.090;19.702;2022-08-20T18:09:12;18.80;99.90
24017;DHT22;12222;50.090;19.702;2022-08-20T18:15:02;18.70;99.90
24017;DHT22;12222;50.090;19.702;2022-08-20T18:31:53;18.50;99.90
24017;DHT22;12222;50.090;19.702;2022-08-20T18:42:40;18.80;99.90
24017;DHT22;12222;50.090;19.702;2022-08-20T18:48:03;18.70;99.90
24017;DHT22;12222;50.090;19.702;2022-08-20T18:53:30;18.70;99.90
24017;DHT22;12222;50.090;19.702;2022-08-20T18:59:10;18.60;99.90
24017;DHT22;12222;50.090;19.702;2022-08-20T19:04:36;18.60;99.90
24017;DHT22;12222;50.090;19.702;2022-08-20T19:10:25;18.70;99.90
24017;DHT22;12222;50.090;19.702;2022-08-20T19:15:58;18.40;99.90
24017;DHT22;12222;50.090;19.702;2022-08-20T19:21:33;18.30;99.90
24017;DHT22;12222;50.090;19.702;2022-08-20T19:27:03;18.50;99.90
24017;DHT22;12222;50.090;19.702;2022-08-20T19:32:34;18.60;99.90
24017;DHT22;12222;50.090;19.702;2022-08-20T19:38:14;18.60;99.90
24017;DHT22;12222;50.090;19.702;2022-08-20T19:43:42;18.50;99.90
24017;DHT22;12222;50.090;19.702;2022-08-20T19:49:28;18.60;99.90
24017;DHT22;12222;50.090;19.702;2022-08-20T19:54:54;18.50;99.90
24017;DHT22;12222;50.090;19.702;2022-08-20T20:00:28;18.40;99.90
24017;DHT22;12222;50.090;19.702;2022-08-20T20:06:00;18.40;99.90
24017;DHT22;12222;50.090;19.702;2022-08-20T20:11:45;18.40;99.90
24017;DHT22;12222;50.090;19.702;2022-08-20T20:17:10;18.30;99.90
24017;DHT22;12222;50.090;19.702;2022-08-20T20:22:54;18.40;99.90
24017;DHT22;12222;50.090;19.702;2022-08-20T20:28:21;18.50;99.90
24017;DHT22;12222;50.090;19.702;2022-08-20T20:33:52;18.50;99.90
24017;DHT22;12222;50.090;19.702;2022-08-20T20:39:29;18.60;99.90
24017;DHT22;12222;50.090;19.702;2022-08-20T20:44:52;18.70;99.90
24017;DHT22;12222;50.090;19.702;2022-08-20T20:50:34;18.70;99.90
24017;DHT22;12222;50.090;19.702;2022-08-20T20:55:59;18.70;99.90
24017;DHT22;12222;50.090;19.702;2022-08-20T21:01:25;18.70;99.90
24017;DHT22;12222;50.090;19.702;2022-08-20T21:07:11;18.80;99.90
24017;DHT22;12222;50.090;19.702;2022-08-20T21:12:35;18.90;99.90
24017;DHT22;12222;50.090;19.702;2022-08-20T21:18:00;18.90;99.90
24017;DHT22;12222;50.090;19.702;2022-08-20T21:23:24;18.90;99.90
24017;DHT22;12222;50.090;19.702;2022-08-20T21:29:05;19.10;99.90
24017;DHT22;12222;50.090;19.702;2022-08-20T21:34:31;19.10;99.90
24017;DHT22;12222;50.090;19.702;2022-08-20T21:39:54;19.20;99.90
24017;DHT22;12222;50.090;19.702;2022-08-20T21:45:17;19.20;99.90
24017;DHT22;12222;50.090;19.702;2022-08-20T21:50:41;19.20;99.90
24017;DHT22;12222;50.090;19.702;2022-08-20T21:56:05;19.20;99.90
24017;DHT22;12222;50.090;19.702;2022-08-20T22:01:29;19.10;99.90
24017;DHT22;12222;50.090;19.702;2022-08-20T22:06:53;19.00;99.90
24017;DHT22;12222;50.090;19.702;2022-08-20T22:12:23;19.00;99.90
24017;DHT22;12222;50.090;19.702;2022-08-20T22:17:45;18.90;99.90
24017;DHT22;12222;50.090;19.702;2022-08-20T22:23:08;19.00;99.90
24017;DHT22;12222;50.090;19.702;2022-08-20T22:28:31;19.00;99.90
24017;DHT22;12222;50.090;19.702;2022-08-20T22:33:54;18.80;99.90
24017;DHT22;12222;50.090;19.702;2022-08-20T22:39:17;19.00;99.90
24017;DHT22;12222;50.090;19.702;2022-08-20T22:44:39;19.10;99.90
24017;DHT22;12222;50.090;19.702;2022-08-20T22:50:02;19.20;99.90
24017;DHT22;12222;50.090;19.702;2022-08-20T22:55:24;19.20;99.90
24017;DHT22;12222;50.090;19.702;2022-08-20T23:00:47;19.20;99.90
24017;DHT22;12222;50.090;19.702;2022-08-20T23:06:11;19.30;99.90
24017;DHT22;12222;50.090;19.702;2022-08-20T23:11:33;19.20;99.90
24017;DHT22;12222;50.090;19.702;2022-08-20T23:17:09;19.00;99.90
24017;DHT22;12222;50.090;19.702;2022-08-20T23:22:34;19.00;99.90
24017;DHT22;12222;50.090;19.702;2022-08-20T23:27:57;19.00;99.90
24017;DHT22;12222;50.090;19.702;2022-08-20T23:33:25;18.90;99.90
24017;DHT22;12222;50.090;19.702;2022-08-20T23:38:47;19.00;99.90
24017;DHT22;12222;50.090;19.702;2022-08-20T23:44:10;19.10;99.90
24017;DHT22;12222;50.090;19.702;2022-08-20T23:49:48;19.10;99.90
24017;DHT22;12222;50.090;19.702;2022-08-20T23:55:10;19.10;99.90
